createdAt,value
2019-01-20T00:00:38.460Z,19.67
2019-01-20T00:03:42.021Z,29.17
2019-01-20T00:06:45.607Z,46.03
2019-01-20T00:09:49.139Z,43.83
2019-01-20T00:12:52.691Z,43.47
2019-01-20T00:15:56.250Z,42.80
2019-01-20T00:18:59.820Z,41.17
2019-01-20T00:22:03.464Z,40.50
2019-01-20T00:25:07.617Z,40.20
2019-01-20T00:28:11.158Z,35.33
2019-01-20T00:31:14.726Z,30.57
2019-01-20T00:34:18.389Z,29.30
2019-01-20T00:37:21.934Z,27.87
2019-01-20T00:40:25.503Z,26.40
2019-01-20T00:43:29.050Z,26.63
2019-01-20T00:46:32.623Z,25.17
2019-01-20T00:49:36.197Z,25.17
2019-01-20T00:52:39.828Z,23.93
2019-01-20T00:55:43.390Z,25.13
2019-01-20T00:58:47.038Z,23.40
2019-01-20T01:01:50.592Z,21.77
2019-01-20T01:04:54.239Z,21.60
2019-01-20T01:07:58.082Z,21.77
2019-01-20T01:11:01.650Z,21.43
2019-01-20T01:14:05.682Z,19.67
2019-01-20T01:17:09.254Z,18.77
2019-01-20T01:20:14.053Z,19.53
2019-01-20T01:23:17.601Z,18.93
2019-01-20T01:26:21.169Z,19.23
2019-01-20T01:29:24.726Z,17.90
2019-01-20T01:32:28.299Z,18.37
2019-01-20T01:35:31.866Z,17.10
2019-01-20T01:38:35.429Z,17.63
2019-01-20T01:41:39.381Z,17.30
2019-01-20T01:44:43.024Z,16.43
2019-01-20T01:47:46.859Z,15.37
2019-01-20T01:50:50.427Z,15.10
2019-01-20T01:53:53.983Z,15.40
2019-01-20T01:56:57.555Z,14.70
2019-01-20T02:00:01.107Z,14.87
2019-01-20T02:03:04.860Z,14.30
2019-01-20T02:06:08.435Z,14.23
2019-01-20T02:09:12.001Z,13.90
2019-01-20T02:12:15.568Z,13.73
2019-01-20T02:15:19.863Z,14.17
2019-01-20T02:18:23.434Z,12.50
2019-01-20T02:21:27.079Z,13.30
2019-01-20T02:24:30.643Z,12.13
2019-01-20T02:27:34.204Z,12.67
2019-01-20T02:30:37.763Z,11.87
2019-01-20T02:33:41.351Z,11.73
2019-01-20T02:36:45.038Z,11.53
2019-01-20T02:39:48.585Z,11.43
2019-01-20T02:42:52.152Z,11.17
2019-01-20T02:45:55.714Z,11.17
2019-01-20T02:48:59.281Z,10.20
2019-01-20T02:52:02.845Z,11.07
2019-01-20T02:55:07.119Z,10.53
2019-01-20T02:58:10.689Z,10.57
2019-01-20T03:01:14.262Z,9.33
2019-01-20T03:04:17.819Z,10.17
2019-01-20T03:07:21.383Z,9.73
2019-01-20T03:10:24.944Z,9.70
2019-01-20T03:13:28.502Z,9.37
2019-01-20T03:16:32.067Z,10.20
2019-01-20T03:19:35.707Z,9.43
2019-01-20T03:22:39.270Z,9.30
2019-01-20T03:25:42.846Z,8.33
2019-01-20T03:28:46.438Z,9.63
2019-01-20T03:31:50.011Z,8.77
2019-01-20T03:34:53.628Z,8.33
2019-01-20T03:37:57.192Z,8.53
2019-01-20T03:41:00.730Z,8.50
2019-01-20T03:44:05.146Z,8.40
2019-01-20T03:47:08.704Z,7.97
2019-01-20T03:50:13.887Z,8.13
2019-01-20T03:53:17.442Z,7.93
2019-01-20T03:56:21.091Z,7.67
2019-01-20T03:59:24.631Z,8.30
2019-01-20T04:02:28.182Z,7.23
2019-01-20T04:05:31.757Z,7.77
2019-01-20T04:08:35.390Z,8.80
2019-01-20T04:11:38.943Z,7.83
2019-01-20T04:14:42.495Z,7.20
2019-01-20T04:17:46.042Z,7.37
2019-01-20T04:20:49.602Z,7.50
2019-01-20T04:23:53.149Z,7.20
2019-01-20T04:26:56.686Z,7.80
2019-01-20T04:30:00.267Z,7.73
2019-01-20T04:33:03.803Z,7.40
2019-01-20T04:36:07.433Z,6.83
2019-01-20T04:39:10.977Z,6.67
2019-01-20T04:42:14.522Z,6.50
2019-01-20T04:45:18.175Z,6.53
2019-01-20T04:48:21.724Z,6.43
2019-01-20T04:51:25.270Z,6.77
2019-01-20T04:54:28.993Z,6.13
2019-01-20T04:57:32.622Z,6.50
2019-01-20T05:00:36.170Z,6.50
2019-01-20T05:03:39.722Z,6.20
2019-01-20T05:06:43.261Z,6.40
2019-01-20T05:09:46.792Z,6.03
2019-01-20T05:12:50.315Z,6.30
2019-01-20T05:15:53.849Z,6.00
2019-01-20T05:18:57.384Z,6.20
2019-01-20T05:22:00.918Z,6.20
2019-01-20T05:25:05.641Z,5.50
2019-01-20T05:28:09.172Z,5.73
2019-01-20T05:31:12.731Z,6.00
2019-01-20T05:34:16.271Z,5.83
2019-01-20T05:37:19.803Z,5.70
2019-01-20T05:40:23.633Z,5.60
2019-01-20T05:43:27.159Z,5.30
2019-01-20T05:46:30.697Z,5.40
2019-01-20T05:49:34.326Z,5.80
2019-01-20T05:52:37.864Z,5.30
2019-01-20T05:55:41.400Z,5.67
2019-01-20T05:58:44.932Z,5.53
2019-01-20T06:01:48.459Z,5.27
2019-01-20T06:04:52.003Z,5.43
2019-01-20T06:07:55.533Z,5.53
2019-01-20T06:10:59.079Z,5.40
2019-01-20T06:14:02.628Z,5.73
2019-01-20T06:17:06.160Z,5.40
2019-01-20T06:20:09.986Z,5.63
2019-01-20T06:23:13.514Z,5.27
2019-01-20T06:26:17.062Z,5.70
2019-01-20T06:29:20.605Z,5.17
2019-01-20T06:32:24.157Z,4.83
2019-01-20T06:35:27.696Z,5.13
2019-01-20T06:38:31.237Z,5.40
2019-01-20T06:41:34.850Z,5.60
2019-01-20T06:44:38.392Z,5.40
2019-01-20T06:47:42.035Z,4.77
2019-01-20T06:50:45.597Z,5.10
2019-01-20T06:53:49.127Z,5.37
2019-01-20T06:56:52.676Z,4.97
2019-01-20T06:59:56.228Z,5.10
2019-01-20T07:02:59.756Z,4.37
2019-01-20T07:06:03.302Z,5.10
2019-01-20T07:09:08.161Z,4.47
2019-01-20T07:12:11.703Z,25.47
2019-01-20T07:15:20.495Z,13.97
2019-01-20T07:18:24.062Z,14.90
2019-01-20T07:21:27.611Z,14.43
2019-01-20T07:24:31.160Z,13.00
2019-01-20T07:27:34.729Z,12.73
2019-01-20T07:30:38.410Z,11.93
2019-01-20T07:33:41.963Z,10.87
2019-01-20T07:36:45.504Z,10.67
2019-01-20T07:39:49.114Z,10.37
2019-01-20T07:42:52.749Z,10.53
2019-01-20T07:45:56.310Z,9.93
2019-01-20T07:48:59.888Z,10.37
2019-01-20T07:52:03.414Z,9.93
2019-01-20T07:55:07.921Z,19.07
2019-01-20T07:58:11.475Z,18.97
2019-01-20T08:01:15.015Z,18.33
2019-01-20T08:04:18.605Z,18.70
2019-01-20T08:07:22.178Z,28.47
2019-01-20T08:10:29.808Z,39.17
2019-01-20T08:13:33.414Z,39.47
2019-01-20T08:16:36.963Z,36.37
2019-01-20T08:19:40.606Z,34.63
2019-01-20T08:22:44.163Z,32.43
2019-01-20T08:25:47.703Z,29.37
2019-01-20T08:28:51.252Z,20.93
2019-01-20T08:31:54.903Z,26.17
2019-01-20T08:34:58.449Z,23.53
2019-01-20T08:38:02.028Z,22.07
2019-01-20T08:41:05.564Z,20.73
2019-01-20T08:44:10.646Z,20.43
2019-01-20T08:47:22.669Z,15.63
2019-01-20T08:50:26.262Z,14.03
2019-01-20T08:53:29.822Z,13.70
2019-01-20T08:56:33.374Z,48.60
